Snow/Ice From: 23-10-2018 22:46 Until: 24-10-2018 08:00 warning for: Snow/Ice Level: Yellow info button
suomi:
Liikennesää: Ajokeli on huono tienpintojen jäätymisen vuoksi.

svenska:
Trafikvädret: Väglaget är dåligt p.g.a. tillfrysning av vägytor.

english:
Traffic weather warning: Bad road conditions are expected because of ice-covered roads. 


Thunder radar more information blitzortung!


Löydät sääaseman tiedot myös:

European Weather Network

Finland Weather Exchange

Weather Underground

AWEKAS



Weather Underground säähistoriasivu

Päivittäin yhteenveto Lokakuu 15, 2017 Yksiköt:  Englantilaiset    Metriset   Molemmat
« Edellinen Päivä
Seuraava Päivä »
Päivittäin Viikoittain Kuukausittain Vuosittain Mukautettu
  Korkea: Matala: Keskiarvo:
Lämpötila: TemperatureF °F 41.5 °F 44.5 °F
Kastepiste: DewpointF °F 40.8 °F 43 °F
Kosteus: Humidity % 83 % 94 %
Tuulen nopeus: WindSpeedMPH mph 0.0 mph 0 mph
Tuulenpuuska: WindSpeedGustMPH mph - -
Tuuli:- - North
Ilmanpaine: PressureIn in 29.65 in -
Sade: 0.00 in    
Historical Graphs
 
 
Taulukkotiedot Lokakuu 15, 2017
Aika Lämpötila Kastepiste Ilmanpaine Tuuli Tuulen nopeus Tuulenpuuska Kosteus Sademäärä (tunneittain)
TemperatureF °F DewpointF °F PressureIn in Calm     Humidity % HourlyPrecipIn in
00:00 43.0 °F 42.4 °F 29.66 in Calm     98 % 0.00 in
00:15 43.0 °F 42.4 °F 29.65 in Calm     98 % 0.00 in
00:30 43.0 °F 42.4 °F 29.65 in Calm     98 % 0.00 in
00:45 42.8 °F 42.3 °F 29.65 in Calm     98 % 0.00 in
01:00 42.8 °F 42.3 °F 29.65 in Calm     98 % 0.00 in
01:15 43.0 °F 42.4 °F 29.66 in Calm     98 % 0.00 in
01:30 43.3 °F 42.8 °F 29.66 in Calm     98 % 0.00 in
01:45 43.9 °F 43.3 °F 29.65 in Calm     98 % 0.00 in
02:00 44.1 °F 43.5 °F 29.65 in Calm     98 % 0.00 in
02:15 43.9 °F 43.3 °F 29.65 in Calm     98 % 0.00 in
02:30 43.2 °F 42.6 °F 29.66 in Calm     98 % 0.00 in
02:45 42.4 °F 41.9 °F 29.66 in Calm     98 % 0.00 in
03:00 41.9 °F 41.4 °F 29.67 in Calm     98 % 0.00 in
03:15 41.5 °F 41.0 °F 29.67 in Calm     98 % 0.00 in
03:30 41.5 °F 41.0 °F 29.67 in Calm     98 % 0.00 in
03:45 41.5 °F 41.0 °F 29.67 in Calm     98 % 0.00 in
04:00 41.5 °F 41.0 °F 29.68 in Calm     98 % 0.00 in
04:15 41.7 °F 41.4 °F 29.68 in Calm     98 % 0.00 in
04:30 42.6 °F 42.1 °F 29.68 in Calm     98 % 0.00 in
04:45 43.0 °F 42.4 °F 29.68 in Calm     98 % 0.00 in
05:00 42.4 °F 41.9 °F 29.69 in Calm     98 % 0.00 in
05:15 42.1 °F 41.5 °F 29.69 in Calm     98 % 0.00 in
05:30 41.7 °F 41.4 °F 29.69 in Calm     98 % 0.00 in
05:45 42.3 °F 41.7 °F 29.70 in Calm     98 % 0.00 in
06:00 43.5 °F 43.0 °F 29.70 in Calm     98 % 0.00 in
06:15 44.4 °F 44.2 °F 29.70 in Calm     99 % 0.00 in
06:30 45.0 °F 44.6 °F 29.70 in Calm     99 % 0.00 in
06:45 45.0 °F 44.6 °F 29.71 in Calm     99 % 0.00 in
07:00 45.1 °F 44.8 °F 29.71 in Calm     99 % 0.00 in
07:15 45.0 °F 44.8 °F 29.72 in Calm     99 % 0.00 in
07:30 44.4 °F 44.2 °F 29.72 in Calm     99 % 0.00 in
07:45 43.9 °F 43.3 °F 29.72 in Calm     98 % 0.00 in
08:00 43.3 °F 42.8 °F 29.72 in Calm     98 % 0.00 in
08:15 42.8 °F 42.3 °F 29.72 in Calm     98 % 0.00 in
08:30 42.4 °F 41.9 °F 29.72 in Calm     98 % 0.00 in
08:45 42.6 °F 42.3 °F 29.73 in Calm     98 % 0.00 in
09:00 42.6 °F 42.1 °F 29.74 in Calm     98 % 0.00 in
09:15 42.8 °F 42.3 °F 29.75 in Calm     98 % 0.00 in
09:30 43.2 °F 42.6 °F 29.75 in Calm     98 % 0.00 in
09:45 43.5 °F 43.0 °F 29.76 in Calm     98 % 0.00 in
10:00 43.9 °F 43.7 °F 29.77 in Calm     99 % 0.00 in
10:15 44.2 °F 43.7 °F 29.77 in Calm     98 % 0.00 in
10:30 44.6 °F 44.1 °F 29.77 in Calm     98 % 0.00 in
10:45 45.0 °F 44.8 °F 29.78 in Calm     99 % 0.00 in
11:00 45.1 °F 44.6 °F 29.79 in Calm     98 % 0.00 in
11:15 45.7 °F 45.1 °F 29.78 in Calm     98 % 0.00 in
11:30 45.9 °F 45.1 °F 29.79 in Calm     97 % 0.00 in
11:45 46.6 °F 45.7 °F 29.80 in Calm     97 % 0.00 in
12:00 47.1 °F 45.9 °F 29.80 in Calm     95 % 0.00 in
12:15 47.7 °F 46.0 °F 29.80 in Calm     94 % 0.00 in
12:30 47.8 °F 45.7 °F 29.81 in Calm     92 % 0.00 in
12:45 47.8 °F 45.7 °F 29.82 in Calm     92 % 0.00 in
13:00 47.8 °F 45.7 °F 29.82 in Calm     92 % 0.00 in
13:15 47.8 °F 45.3 °F 29.82 in Calm     91 % 0.00 in
13:30 47.8 °F 45.7 °F 29.82 in Calm     92 % 0.00 in
13:45 48.2 °F 46.0 °F 29.83 in Calm     92 % 0.00 in
14:00 48.4 °F 45.9 °F 29.83 in Calm     91 % 0.00 in
14:15 48.0 °F 45.3 °F 29.83 in Calm     90 % 0.00 in
14:30 47.8 °F 45.0 °F 29.83 in Calm     90 % 0.00 in
14:45 47.8 °F 45.3 °F 29.84 in Calm     91 % 0.00 in
15:00 48.4 °F 45.1 °F 29.84 in Calm     89 % 0.00 in
15:15 49.3 °F 45.9 °F 29.84 in Calm     88 % 0.00 in
15:30 50.4 °F 46.2 °F 29.83 in Calm     86 % 0.00 in
15:45 50.5 °F 45.9 °F 29.84 in Calm     84 % 0.00 in
16:00 51.3 °F 46.2 °F 29.85 in Calm     83 % 0.00 in
16:15 51.1 °F 46.4 °F 29.85 in Calm     84 % 0.00 in
16:30 50.5 °F 45.7 °F 29.85 in Calm     83 % 0.00 in
16:45 49.8 °F 45.3 °F 29.85 in Calm     84 % 0.00 in
17:00 49.5 °F 45.1 °F 29.85 in Calm     85 % 0.00 in
17:15 48.7 °F 45.0 °F 29.86 in Calm     87 % 0.00 in
17:30 48.4 °F 44.8 °F 29.86 in Calm     87 % 0.00 in
17:45 47.8 °F 44.2 °F 29.86 in Calm     87 % 0.00 in
18:00 47.3 °F 43.9 °F 29.86 in Calm     88 % 0.00 in
18:15 46.4 °F 43.3 °F 29.86 in Calm     89 % 0.00 in
18:30 45.3 °F 42.6 °F 29.86 in Calm     90 % 0.00 in
18:45 44.4 °F 41.9 °F 29.86 in Calm     91 % 0.00 in
19:00 43.3 °F 41.2 °F 29.86 in Calm     92 % 0.00 in
19:15 42.4 °F 40.8 °F 29.86 in Calm     94 % 0.00 in
19:30 42.6 °F 41.7 °F 29.86 in Calm     96 % 0.00 in
19:45 43.5 °F 42.6 °F 29.86 in Calm     96 % 0.00 in
20:00 44.1 °F 42.8 °F 29.86 in Calm     95 % 0.00 in
20:15 44.1 °F 42.4 °F 29.85 in Calm     94 % 0.00 in
20:30 44.1 °F 42.4 °F 29.85 in Calm     94 % 0.00 in
20:45 44.2 °F 43.0 °F 29.85 in Calm     95 % 0.00 in
21:00 44.8 °F 43.3 °F 29.85 in Calm     95 % 0.00 in
21:30 45.0 °F 43.3 °F 29.84 in Calm     94 % 0.00 in
21:45 44.8 °F 43.2 °F 29.84 in Calm     94 % 0.00 in
22:00 44.4 °F 42.8 °F 29.84 in Calm     94 % 0.00 in
22:15 44.2 °F 43.0 °F 29.84 in Calm     95 % 0.00 in
22:30 44.2 °F 42.8 °F 29.83 in Calm     95 % 0.00 in
22:45 44.1 °F 42.6 °F 29.82 in Calm     95 % 0.00 in
23:00 44.1 °F 42.6 °F 29.82 in Calm     95 % 0.00 in
23:15 43.9 °F 42.6 °F 29.81 in Calm     95 % 0.00 in
23:30 43.7 °F 42.4 °F 29.81 in Calm     95 % 0.00 in
23:45 43.5 °F 42.1 °F 29.81 in Calm     95 % 0.00 in
Esan sääasema
Terveisin Weather Underground - 2.75 mb

Alkuperäinen skripti  Jim McMurry - jmcmurry@mwt.net Sovitettu myös templatelle  Wim van der Kuil - Leuven-Template.eu

Laitteet joita käytämme:

Sääasema
Davis VP2

Sääasemaohjelma
Cumulus

Sääaseman tietokone
Asus EeePC

Palveluntarjoaja
Suncomet

Davis VP2

Cumulus

Asus EeePC

Suncomet